createdAt,value
2024-03-05T00:04:48.301Z,69.78
2024-03-05T00:09:52.253Z,69.84
2024-03-05T00:14:56.796Z,69.76
2024-03-05T00:20:01.946Z,69.64
2024-03-05T00:25:09.026Z,69.91
2024-03-05T00:30:15.078Z,69.90
2024-03-05T00:35:20.507Z,69.80
2024-03-05T00:40:23.969Z,69.91
2024-03-05T00:45:27.563Z,70.00
2024-03-05T00:50:32.875Z,69.53
2024-03-05T00:55:38.417Z,69.33
2024-03-05T01:00:41.907Z,69.34
2024-03-05T01:05:46.841Z,69.39
2024-03-05T01:10:50.291Z,69.15
2024-03-05T01:16:14.022Z,68.10
2024-03-05T01:21:19.368Z,69.14
2024-03-05T01:26:24.079Z,69.34
2024-03-05T01:31:28.730Z,69.21
2024-03-05T01:36:33.822Z,68.39
2024-03-05T01:41:37.445Z,68.88
2024-03-05T01:46:41.993Z,68.84
2024-03-05T01:51:47.820Z,69.15
2024-03-05T01:56:55.682Z,68.68
2024-03-05T02:01:59.685Z,68.35
2024-03-05T02:07:07.905Z,68.78
2024-03-05T02:12:11.795Z,68.79
2024-03-05T02:17:16.764Z,68.54
2024-03-05T02:22:22.044Z,68.90
2024-03-05T02:27:30.506Z,68.65
2024-03-05T02:32:39.359Z,68.51
2024-03-05T02:37:44.932Z,68.77
2024-03-05T02:42:48.827Z,68.55
2024-03-05T02:47:52.726Z,68.59
2024-03-05T03:12:19.433Z,67.96
2024-03-05T03:17:22.949Z,68.15
2024-03-05T03:22:27.354Z,68.09
2024-03-05T03:27:32.290Z,68.38
2024-03-05T03:32:36.827Z,67.98
2024-03-05T03:37:40.424Z,67.80
2024-03-05T03:42:45.702Z,67.89
2024-03-05T03:47:49.233Z,68.01
2024-03-05T03:52:52.808Z,67.71
2024-03-05T03:57:57.707Z,67.76
2024-03-05T04:03:03.672Z,68.04
2024-03-05T04:08:08.113Z,68.22
2024-03-05T04:13:13.159Z,68.06
2024-03-05T04:18:19.293Z,68.24
2024-03-05T04:23:23.029Z,67.88
2024-03-05T04:28:28.251Z,68.25
2024-03-05T04:33:32.894Z,67.97
2024-03-05T04:38:36.360Z,68.11
2024-03-05T04:43:42.235Z,68.08
2024-03-05T04:48:45.989Z,68.68
2024-03-05T04:53:49.491Z,68.52
2024-03-05T04:58:54.517Z,68.63
2024-03-05T05:03:58.103Z,68.28
2024-03-05T05:09:01.526Z,68.27
2024-03-05T05:14:06.366Z,67.87
2024-03-05T05:19:12.099Z,68.10
2024-03-05T05:24:15.712Z,68.14
2024-03-05T05:29:27.533Z,68.11
2024-03-05T05:34:40.311Z,68.52
2024-03-05T05:39:43.780Z,68.33
2024-03-05T05:44:48.502Z,68.91
2024-03-05T05:49:52.357Z,69.48
2024-03-05T05:54:57.119Z,69.41
2024-03-05T06:00:01.886Z,69.34
2024-03-05T06:05:10.797Z,69.56
2024-03-05T06:10:18.200Z,69.80
2024-03-05T06:15:23.332Z,69.68
2024-03-05T06:20:28.291Z,69.28
2024-03-05T06:25:32.226Z,69.38
2024-03-05T06:30:37.050Z,69.26
2024-03-05T06:35:40.596Z,69.26
2024-03-05T06:40:44.151Z,69.08
2024-03-05T06:45:49.457Z,68.92
2024-03-05T06:50:58.875Z,68.36
2024-03-05T06:56:19.807Z,68.78
2024-03-05T07:01:24.789Z,67.90
2024-03-05T07:06:40.644Z,67.70
2024-03-05T07:11:48.904Z,68.74
2024-03-05T07:16:54.518Z,67.73
2024-03-05T07:21:58.486Z,67.43
2024-03-05T07:27:08.295Z,67.74
2024-03-05T07:32:16.792Z,68.79
2024-03-05T07:37:22.132Z,67.78
2024-03-05T07:42:25.674Z,68.15
2024-03-05T07:47:30.639Z,68.30
2024-03-05T07:52:34.191Z,68.32
2024-03-05T07:57:39.197Z,68.95
2024-03-05T08:02:46.156Z,69.30
2024-03-05T08:07:51.309Z,69.14
2024-03-05T08:12:57.505Z,68.93
2024-03-05T08:18:02.348Z,68.93
2024-03-05T08:23:06.292Z,69.18
2024-03-05T08:28:10.127Z,69.78
2024-03-05T08:33:20.922Z,69.40
2024-03-05T08:38:26.049Z,69.03
2024-03-05T08:43:31.715Z,69.33
2024-03-05T08:48:36.680Z,69.84
2024-03-05T08:53:40.138Z,70.56
2024-03-05T08:58:44.446Z,69.72
2024-03-05T09:03:50.909Z,70.59
2024-03-05T09:08:54.525Z,70.27
2024-03-05T09:13:58.103Z,69.89
2024-03-05T09:19:02.940Z,69.24
2024-03-05T09:24:07.930Z,69.73
2024-03-05T09:29:13.791Z,69.95
2024-03-05T09:34:20.842Z,69.69
2024-03-05T09:39:24.539Z,70.01
2024-03-05T09:44:30.104Z,70.25
2024-03-05T09:49:35.865Z,69.97
2024-03-05T09:54:40.249Z,70.24
2024-03-05T09:59:45.182Z,70.61
2024-03-05T10:04:53.125Z,70.48
2024-03-05T10:10:08.590Z,69.43
2024-03-05T10:15:18.935Z,69.52
2024-03-05T10:20:33.525Z,69.53
2024-03-05T10:25:37.839Z,69.19
2024-03-05T10:30:45.756Z,69.25
2024-03-05T10:35:53.129Z,68.76
2024-03-05T10:40:57.237Z,68.88
2024-03-05T10:46:03.645Z,67.96
2024-03-05T10:51:16.782Z,67.98
2024-03-05T10:56:29.311Z,69.31
2024-03-05T11:01:41.465Z,68.89
2024-03-05T11:06:48.547Z,67.57
2024-03-05T11:11:57.730Z,67.24
2024-03-05T11:17:11.186Z,68.39
2024-03-05T11:22:24.564Z,67.38
2024-03-05T11:27:31.194Z,66.17
2024-03-05T11:32:35.934Z,64.89
2024-03-05T11:37:52.597Z,65.30
2024-03-05T11:42:56.677Z,64.23
2024-03-05T11:48:03.328Z,62.52
2024-03-05T11:53:09.714Z,63.72
2024-03-05T11:58:15.795Z,63.55
2024-03-05T12:03:20.905Z,63.55
2024-03-05T12:08:25.754Z,63.13
2024-03-05T12:13:30.188Z,63.02
2024-03-05T12:18:33.885Z,63.04
2024-03-05T12:23:43.319Z,63.22
2024-03-05T12:28:47.413Z,63.99
2024-03-05T12:33:51.049Z,63.63
2024-03-05T12:38:59.009Z,62.66
2024-03-05T12:44:02.719Z,63.08
2024-03-05T12:49:09.707Z,61.87
2024-03-05T12:54:18.718Z,62.69
2024-03-05T12:59:22.727Z,61.15
2024-03-05T13:04:26.793Z,61.82
2024-03-05T13:09:31.840Z,59.69
2024-03-05T13:14:35.577Z,59.95
2024-03-05T13:19:39.533Z,61.55
2024-03-05T13:24:44.746Z,59.72
2024-03-05T13:29:49.526Z,61.25
2024-03-05T13:34:58.578Z,61.02
2024-03-05T13:40:03.659Z,60.46
2024-03-05T13:45:20.505Z,59.65
2024-03-05T13:50:49.717Z,58.64
2024-03-05T13:55:56.459Z,58.41
2024-03-05T14:01:04.009Z,57.71
2024-03-05T14:06:08.681Z,57.26
2024-03-05T14:11:15.016Z,58.39
2024-03-05T14:16:19.222Z,58.79
2024-03-05T14:21:23.677Z,59.14
2024-03-05T14:26:28.785Z,58.46
2024-03-05T14:31:32.834Z,58.09
2024-03-05T14:36:38.022Z,58.72
2024-03-05T14:41:42.994Z,59.13
2024-03-05T14:46:46.630Z,58.45
2024-03-05T14:51:50.236Z,58.01
2024-03-05T14:56:55.175Z,57.52
2024-03-05T15:01:58.718Z,57.79
2024-03-05T15:07:04.136Z,57.97
2024-03-05T15:12:11.115Z,58.26
2024-03-05T15:17:14.681Z,57.16
2024-03-05T15:22:18.165Z,57.25
2024-03-05T15:27:23.213Z,57.08
2024-03-05T15:32:26.741Z,57.79
2024-03-05T15:37:30.204Z,57.74
2024-03-05T15:42:34.943Z,57.60
2024-03-05T15:47:40.509Z,57.21
2024-03-05T15:52:45.504Z,56.73
2024-03-05T15:57:58.934Z,57.27
2024-03-05T16:03:05.837Z,56.53
2024-03-05T16:08:13.891Z,57.05
2024-03-05T16:13:18.728Z,56.83
2024-03-05T16:18:23.104Z,57.39
2024-03-05T16:23:27.055Z,56.79
2024-03-05T16:28:37.191Z,56.56
2024-03-05T16:40:15.916Z,59.46
2024-03-05T16:45:24.649Z,56.20
2024-03-05T16:50:30.708Z,56.00
2024-03-05T16:55:34.598Z,55.48
2024-03-05T17:00:44.409Z,55.92
2024-03-05T17:05:51.863Z,56.65
2024-03-05T17:10:56.411Z,56.31
2024-03-05T17:16:02.450Z,55.86
2024-03-05T17:21:08.265Z,55.78
2024-03-05T17:26:13.417Z,55.58
2024-03-05T17:31:18.257Z,56.06
2024-03-05T17:36:22.529Z,56.29
2024-03-05T17:41:26.217Z,55.93
2024-03-05T17:46:31.272Z,56.44
2024-03-05T17:51:37.919Z,57.17
2024-03-05T17:56:41.622Z,57.46
2024-03-05T18:01:46.824Z,57.46
2024-03-05T18:06:50.416Z,57.90
2024-03-05T18:11:54.236Z,57.67
2024-03-05T18:16:59.116Z,57.79
2024-03-05T18:22:02.603Z,58.57
2024-03-05T18:27:15.088Z,58.38
2024-03-05T18:32:20.454Z,58.36
2024-03-05T18:37:23.969Z,58.54
2024-03-05T18:42:27.444Z,58.99
2024-03-05T18:47:33.093Z,59.44
2024-03-05T18:52:38.290Z,59.52
2024-03-05T18:57:43.409Z,59.09
2024-03-05T19:02:50.479Z,58.92
2024-03-05T19:07:54.905Z,59.17
2024-03-05T19:12:59.614Z,59.68
2024-03-05T19:18:05.570Z,60.61
2024-03-05T19:23:09.933Z,59.35
2024-03-05T19:28:13.471Z,59.34
2024-03-05T19:33:18.417Z,59.47
2024-03-05T19:38:23.731Z,59.25
2024-03-05T19:43:28.937Z,59.65
2024-03-05T19:48:34.955Z,60.11
2024-03-05T19:53:38.506Z,60.10
2024-03-05T19:58:42.067Z,59.97
2024-03-05T20:03:47.378Z,60.07
2024-03-05T20:08:50.868Z,60.42
2024-03-05T20:13:55.028Z,60.74
2024-03-05T20:18:59.913Z,60.62
2024-03-05T20:24:06.145Z,60.80
2024-03-05T20:29:11.943Z,60.70
2024-03-05T20:34:18.177Z,60.93
2024-03-05T20:39:24.730Z,60.79
2024-03-05T20:44:34.692Z,60.66
2024-03-05T20:49:42.124Z,60.70
2024-03-05T20:54:50.389Z,60.70
2024-03-05T21:00:06.747Z,60.82
2024-03-05T21:05:14.140Z,60.62
2024-03-05T21:10:18.093Z,60.30
2024-03-05T21:15:22.466Z,60.15
2024-03-05T21:20:27.824Z,60.52
2024-03-05T21:25:39.449Z,60.02
2024-03-05T21:30:48.688Z,60.16
2024-03-05T21:35:56.040Z,60.21
2024-03-05T21:40:59.985Z,60.16
2024-03-05T21:46:05.287Z,60.47
2024-03-05T21:51:15.399Z,60.67
2024-03-05T21:56:19.827Z,61.01
2024-03-05T22:01:23.822Z,60.66
2024-03-05T22:06:28.641Z,61.02
2024-03-05T22:11:32.165Z,61.03
2024-03-05T22:16:35.852Z,61.20
2024-03-05T22:21:41.108Z,61.49
2024-03-05T22:26:50.163Z,61.47
2024-03-05T22:31:56.423Z,61.63
2024-03-05T22:37:02.162Z,61.29
2024-03-05T22:42:06.047Z,62.20
2024-03-05T22:47:09.534Z,62.18
2024-03-05T22:52:14.422Z,62.27
2024-03-05T22:57:18.023Z,62.62
2024-03-05T23:02:22.526Z,62.67
2024-03-05T23:07:27.579Z,62.70
2024-03-05T23:12:31.021Z,62.66
2024-03-05T23:17:34.478Z,62.90
2024-03-05T23:22:44.339Z,62.87
2024-03-05T23:27:51.156Z,62.99
2024-03-05T23:32:56.015Z,62.54
2024-03-05T23:38:01.070Z,62.85
2024-03-05T23:43:04.826Z,63.08
2024-03-05T23:48:09.704Z,63.07
2024-03-05T23:53:16.697Z,63.04
2024-03-05T23:58:21.485Z,63.36
